Time;durP1;ratioP1;P1;durP2;ratioP2;P2;SDS_P1;SDS_P2;PMS_P1;PMS_P2;Temp;Humidity;BMP_temperature;BMP_pressure;BME280_temperature;BME280_humidity;BME280_pressure;Samples;Min_cycle;Max_cycle;Signal;HPM_P1;HPM_P2
2022/08/01 00:01:42;;;;;;;3.67;2.83;;;;;;;17.30;100.00;96434.78;10328922;28;20228;-59
2022/08/01 00:06:42;;;;;;;4.30;2.88;;;;;;;17.21;100.00;96430.72;10327069;28;20204;-62
2022/08/01 00:11:42;;;;;;;3.30;2.92;;;;;;;17.32;100.00;96429.28;10328671;28;20186;-61
2022/08/01 00:16:43;;;;;;;3.65;2.50;;;;;;;17.42;100.00;96422.53;10423480;23;20251;-54
2022/08/01 00:21:43;;;;;;;5.22;2.72;;;;;;;17.47;100.00;96425.41;10408643;28;20771;-56
2022/08/01 00:26:43;;;;;;;3.78;3.00;;;;;;;17.51;100.00;96424.97;10409132;28;21010;-54
2022/08/01 00:31:44;;;;;;;5.15;2.78;;;;;;;17.40;100.00;96429.09;10407721;28;20694;-53
2022/08/01 00:36:44;;;;;;;3.05;2.75;;;;;;;17.34;100.00;96425.41;10408848;28;20563;-53
2022/08/01 00:41:45;;;;;;;7.75;2.70;;;;;;;17.27;100.00;96421.97;10408587;28;20666;-56
2022/08/01 00:46:45;;;;;;;3.03;2.75;;;;;;;17.21;100.00;96420.13;10408187;28;20580;-55
2022/08/01 00:51:45;;;;;;;3.35;2.67;;;;;;;17.02;100.00;96419.16;10408551;28;20196;-54
2022/08/01 00:56:46;;;;;;;4.40;3.13;;;;;;;16.89;100.00;96422.59;10408490;28;20220;-57
2022/08/01 01:01:46;;;;;;;4.68;3.05;;;;;;;16.75;100.00;96414.63;10407482;28;20223;-53
2022/08/01 01:07:07;;;;;;;3.47;2.90;;;;;;;16.62;100.00;96411.97;10407771;28;20270;-54
2022/08/01 01:12:37;;;;;;;3.17;2.90;;;;;;;16.41;100.00;96413.75;10405676;28;20231;-52
2022/08/01 01:17:56;;;;;;;5.32;3.40;;;;;;;16.23;100.00;96414.34;10405992;28;20315;-53
2022/08/01 01:22:56;;;;;;;3.67;3.38;;;;;;;16.21;100.00;96408.44;10407378;28;20219;-52
2022/08/01 01:28:02;;;;;;;6.70;3.53;;;;;;;16.14;100.00;96407.63;10407411;28;20181;-54
2022/08/01 01:33:06;;;;;;;3.83;3.22;;;;;;;16.15;100.00;96397.84;10407189;28;20854;-55
2022/08/01 01:38:10;;;;;;;3.67;3.25;;;;;;;16.01;100.00;96404.94;10407230;28;20222;-53
2022/08/01 01:43:11;;;;;;;4.25;3.40;;;;;;;15.95;100.00;96400.44;10405464;28;20219;-52
2022/08/01 01:48:13;;;;;;;3.30;3.03;;;;;;;15.91;100.00;96393.91;10405831;28;20660;-52
2022/08/01 01:53:16;;;;;;;9.65;3.03;;;;;;;15.80;100.00;96390.00;10406541;28;20235;-52
2022/08/01 01:58:18;;;;;;;4.07;3.20;;;;;;;15.89;100.00;96388.81;10405635;28;20216;-55
2022/08/01 02:03:19;;;;;;;3.83;3.30;;;;;;;15.84;100.00;96386.78;10406596;28;20216;-52
2022/08/01 02:08:20;;;;;;;4.05;3.65;;;;;;;15.76;100.00;96386.09;10406385;28;20651;-54
2022/08/01 02:13:20;;;;;;;4.00;3.50;;;;;;;15.89;100.00;96388.03;10406504;28;20236;-52
2022/08/01 02:18:21;;;;;;;3.97;3.20;;;;;;;15.93;100.00;96386.63;10404684;28;20220;-52
2022/08/01 02:23:23;;;;;;;3.38;2.90;;;;;;;15.96;100.00;96389.69;10412968;28;20752;-53
2022/08/01 02:28:31;;;;;;;3.53;2.88;;;;;;;15.91;100.00;96388.63;10412399;28;20220;-55
2022/08/01 02:33:38;;;;;;;3.17;2.95;;;;;;;16.05;100.00;96372.63;10412289;28;20220;-51
2022/08/01 02:38:42;;;;;;;3.78;3.10;;;;;;;16.15;100.00;96379.34;10413209;28;20213;-56
2022/08/01 02:43:46;;;;;;;4.07;3.20;;;;;;;16.16;100.00;96387.09;10411953;28;20216;-56
2022/08/01 02:48:47;;;;;;;3.85;3.00;;;;;;;16.21;100.00;96389.13;10412913;28;20196;-53
2022/08/01 02:53:49;;;;;;;5.07;3.17;;;;;;;16.31;100.00;96383.44;10411304;28;20213;-52
2022/08/01 02:58:50;;;;;;;3.42;3.10;;;;;;;16.44;100.00;96398.53;10412933;28;20633;-53
2022/08/01 03:03:51;;;;;;;3.85;2.83;;;;;;;16.57;100.00;96396.72;10410650;28;20227;-53
2022/08/01 03:08:52;;;;;;;3.08;2.85;;;;;;;16.48;100.00;96405.84;10412358;28;20188;-54
2022/08/01 03:13:54;;;;;;;3.28;2.97;;;;;;;16.47;100.00;96409.50;10411936;28;20246;-54
2022/08/01 03:18:56;;;;;;;3.40;3.10;;;;;;;16.39;100.00;96415.81;10426532;28;20248;-54
2022/08/01 03:23:58;;;;;;;4.28;3.00;;;;;;;16.44;100.00;96411.75;10410363;28;20224;-54
2022/08/01 03:29:06;;;;;;;6.38;3.10;;;;;;;16.18;100.00;96413.31;10411381;28;20220;-54
2022/08/01 03:34:06;;;;;;;3.63;3.17;;;;;;;16.12;100.00;96422.03;10409995;28;20213;-55
2022/08/01 03:39:08;;;;;;;4.68;2.90;;;;;;;16.07;100.00;96430.56;10411092;28;20246;-53
2022/08/01 03:44:13;;;;;;;5.38;2.90;;;;;;;15.97;100.00;96419.53;10409261;28;20209;-52
2022/08/01 03:49:18;;;;;;;5.07;3.10;;;;;;;15.93;100.00;96419.13;10426217;28;20291;-54
2022/08/01 03:54:21;;;;;;;3.67;3.15;;;;;;;15.97;100.00;96416.91;10410379;28;21002;-52
2022/08/01 03:59:22;;;;;;;3.63;3.33;;;;;;;15.89;100.00;96427.66;10425406;28;20259;-52
2022/08/01 04:04:23;;;;;;;4.60;3.28;;;;;;;15.81;100.00;96429.44;10410109;28;20725;-56
2022/08/01 04:09:23;;;;;;;3.50;3.08;;;;;;;15.79;100.00;96434.13;10409705;28;20206;-55
2022/08/01 04:14:23;;;;;;;6.47;3.80;;;;;;;15.81;100.00;96432.09;10409880;28;20390;-55
2022/08/01 04:19:25;;;;;;;5.60;3.70;;;;;;;16.07;100.00;96438.50;10409262;28;20231;-53
2022/08/01 04:24:28;;;;;;;8.27;3.28;;;;;;;16.18;100.00;96443.19;10409553;28;20209;-52
2022/08/01 04:29:30;;;;;;;5.60;3.47;;;;;;;16.50;100.00;96440.03;10409268;28;20196;-54
2022/08/01 04:34:31;;;;;;;4.68;3.63;;;;;;;16.75;100.00;96443.75;10407776;28;20220;-55
2022/08/01 04:39:36;;;;;;;5.60;3.60;;;;;;;16.85;100.00;96453.91;10424212;28;20220;-59
2022/08/01 04:44:37;;;;;;;6.30;3.30;;;;;;;16.93;100.00;96456.38;10408395;28;20266;-58
2022/08/01 04:49:37;;;;;;;4.05;3.63;;;;;;;17.11;100.00;96452.31;10408285;28;20204;-56
2022/08/01 04:54:38;;;;;;;5.68;3.65;;;;;;;17.50;100.00;96449.84;10408425;28;20217;-54
2022/08/01 04:59:42;;;;;;;5.97;3.28;;;;;;;17.79;100.00;96454.66;10408059;28;20243;-55
2022/08/01 05:04:43;;;;;;;5.53;3.33;;;;;;;17.90;100.00;96463.84;10407956;28;20563;-59
2022/08/01 05:09:46;;;;;;;3.38;3.08;;;;;;;18.03;100.00;96457.66;10408007;28;20193;-61
2022/08/01 05:14:46;;;;;;;4.22;3.53;;;;;;;18.12;100.00;96453.75;10407649;28;20320;-59
2022/08/01 05:19:46;;;;;;;6.00;3.60;;;;;;;18.34;100.00;96451.59;10407264;28;20302;-56
2022/08/01 05:24:47;;;;;;;3.67;3.38;;;;;;;18.36;100.00;96467.28;10407679;28;20216;-55
2022/08/01 05:29:47;;;;;;;5.53;3.50;;;;;;;18.54;100.00;96462.13;10407655;28;20207;-58
2022/08/01 05:34:47;;;;;;;4.88;3.58;;;;;;;18.51;100.00;96464.38;10407587;28;20214;-56
2022/08/01 05:39:48;;;;;;;5.75;3.83;;;;;;;18.21;100.00;96462.28;10407357;28;20285;-53
2022/08/01 05:44:49;;;;;;;4.68;3.50;;;;;;;18.06;100.00;96462.53;10407313;28;20235;-60
2022/08/01 05:49:49;;;;;;;5.50;3.40;;;;;;;18.26;100.00;96462.44;10407356;28;20192;-58
2022/08/01 05:54:50;;;;;;;5.68;3.28;;;;;;;18.49;100.00;96464.56;10408847;28;20208;-60
2022/08/01 05:59:50;;;;;;;3.85;3.45;;;;;;;18.21;100.00;96472.06;10415112;28;20227;-60
2022/08/01 06:04:50;;;;;;;3.45;3.15;;;;;;;18.07;100.00;96479.25;10415260;28;20295;-60
2022/08/01 06:09:51;;;;;;;5.10;3.08;;;;;;;18.13;100.00;96484.56;10414660;28;20192;-58
2022/08/01 06:20:03;;;;;;;4.68;3.60;;;;;;;17.81;100.00;96497.66;10371607;28;20229;-59
2022/08/01 06:25:04;;;;;;;6.65;3.65;;;;;;;17.71;100.00;96502.56;10359341;28;20207;-59
2022/08/01 06:30:07;;;;;;;6.35;4.50;;;;;;;17.42;100.00;96504.63;10332460;28;20189;-61
2022/08/01 06:35:07;;;;;;;3.97;3.58;;;;;;;17.85;100.00;96499.91;10332860;28;20669;-61
2022/08/01 06:40:09;;;;;;;6.75;4.28;;;;;;;18.07;100.00;96506.59;10339865;28;20249;-58
2022/08/01 06:45:11;;;;;;;5.35;4.00;;;;;;;17.88;100.00;96510.88;10348428;28;20579;-60
2022/08/01 06:50:13;;;;;;;4.70;3.30;;;;;;;17.95;100.00;96516.22;10372345;28;20970;-59
2022/08/01 06:55:15;;;;;;;4.63;3.47;;;;;;;18.37;100.00;96508.72;10331783;28;20224;-60
2022/08/01 07:00:18;;;;;;;3.55;3.25;;;;;;;18.20;100.00;96515.53;10326530;28;20360;-57
2022/08/01 07:05:19;;;;;;;6.53;3.72;;;;;;;18.13;100.00;96507.56;10326865;28;20562;-61
2022/08/01 07:10:19;;;;;;;6.30;4.72;;;;;;;17.92;100.00;96517.44;10326093;28;20189;-60
2022/08/01 07:15:25;;;;;;;6.18;5.38;;;;;;;17.87;100.00;96524.34;10327197;28;20713;-61
2022/08/01 07:20:26;;;;;;;6.43;5.82;;;;;;;17.88;100.00;96526.78;10334397;28;20308;-59
2022/08/01 07:25:26;;;;;;;7.78;6.78;;;;;;;17.80;100.00;96522.53;10346873;28;20557;-60
2022/08/01 07:30:26;;;;;;;8.43;7.60;;;;;;;17.96;100.00;96525.78;10345014;28;20181;-60
2022/08/01 07:35:27;;;;;;;12.48;8.98;;;;;;;17.75;100.00;96530.28;10329170;28;20218;-60
2022/08/01 07:40:27;;;;;;;11.43;10.23;;;;;;;17.67;100.00;96533.13;10326762;28;20257;-61
2022/08/01 07:45:28;;;;;;;13.18;10.77;;;;;;;17.89;100.00;96540.91;10324706;28;20221;-61
2022/08/01 07:50:28;;;;;;;10.60;9.27;;;;;;;17.95;100.00;96542.72;10326814;28;20236;-60
2022/08/01 07:55:28;;;;;;;12.45;9.88;;;;;;;18.22;100.00;96534.69;10292654;28;20222;-61
2022/08/01 08:00:29;;;;;;;9.55;8.63;;;;;;;18.47;100.00;96519.69;10285477;28;20736;-59
2022/08/01 08:05:29;;;;;;;11.55;8.05;;;;;;;18.69;100.00;96519.38;10285378;28;20214;-61
2022/08/01 08:10:29;;;;;;;9.32;7.90;;;;;;;18.88;100.00;96529.09;10285781;28;20189;-61
2022/08/01 08:15:30;;;;;;;15.82;8.73;;;;;;;17.89;100.00;96535.59;10308175;28;20233;-58
2022/08/01 08:20:30;;;;;;;9.43;8.52;;;;;;;18.17;100.00;96535.31;10328965;28;20230;-61
2022/08/01 08:25:31;;;;;;;8.30;7.38;;;;;;;18.46;100.00;96546.44;10342051;28;20205;-59
2022/08/01 08:30:31;;;;;;;11.43;8.68;;;;;;;18.44;100.00;96548.50;10340540;28;20631;-59
2022/08/01 08:35:31;;;;;;;10.10;8.75;;;;;;;18.38;100.00;96558.09;10330257;28;20995;-61
2022/08/01 08:40:34;;;;;;;11.90;10.77;;;;;;;18.25;100.00;96563.44;10324744;28;20724;-58
2022/08/01 08:45:35;;;;;;;12.77;11.02;;;;;;;18.33;100.00;96560.53;10323131;28;20229;-59
2022/08/01 08:50:36;;;;;;;17.52;13.82;;;;;;;18.41;100.00;96560.31;10306821;28;20545;-59
2022/08/01 08:55:37;;;;;;;14.55;12.90;;;;;;;18.46;100.00;96562.34;10323802;28;20213;-61
2022/08/01 09:00:39;;;;;;;16.10;14.30;;;;;;;18.43;100.00;96568.06;10306437;28;20222;-61
2022/08/01 09:05:39;;;;;;;15.57;12.57;;;;;;;18.60;100.00;96571.06;10323648;28;20218;-61
2022/08/01 09:10:40;;;;;;;15.73;13.02;;;;;;;18.12;100.00;96582.84;10323069;28;20198;-62
2022/08/01 09:15:46;;;;;;;19.15;15.10;;;;;;;18.17;100.00;96588.34;10322567;28;20598;-63
2022/08/01 09:20:46;;;;;;;11.35;10.25;;;;;;;17.68;100.00;96601.00;10320691;28;20218;-63
2022/08/01 09:25:51;;;;;;;9.38;8.48;;;;;;;17.61;100.00;96595.72;10321809;28;20217;-58
2022/08/01 09:30:52;;;;;;;7.90;7.10;;;;;;;17.63;100.00;96604.25;10326656;28;20212;-61
2022/08/01 09:35:57;;;;;;;12.75;10.23;;;;;;;18.34;100.00;96602.75;10330317;28;20279;-59
2022/08/01 09:40:59;;;;;;;12.07;10.38;;;;;;;19.25;100.00;96608.94;10331182;28;20732;-61
2022/08/01 09:46:05;;;;;;;6.55;5.95;;;;;;;19.99;100.00;96602.25;10330554;28;20213;-61
2022/08/01 09:51:07;;;;;;;3.40;3.10;;;;;;;19.90;100.00;96591.88;10311867;28;20273;-60
2022/08/01 09:56:11;;;;;;;2.70;2.50;;;;;;;20.35;100.00;96582.03;10330116;28;20940;-61
2022/08/01 10:01:12;;;;;;;2.47;2.25;;;;;;;21.02;100.00;96577.53;10329761;28;20221;-61
2022/08/01 10:06:22;;;;;;;2.40;2.20;;;;;;;21.74;100.00;96575.88;10330320;28;20218;-61
2022/08/01 10:11:23;;;;;;;3.13;2.15;;;;;;;20.75;100.00;96577.09;10330038;28;20194;-61
2022/08/01 10:16:24;;;;;;;4.35;2.58;;;;;;;21.37;100.00;96568.81;10329217;28;20241;-61
2022/08/01 10:21:26;;;;;;;3.17;2.08;;;;;;;21.27;100.00;96560.59;10326055;28;20658;-62
2022/08/01 10:26:27;;;;;;;1.50;1.40;;;;;;;22.81;100.00;96552.50;10329165;28;20209;-62
2022/08/01 10:31:32;;;;;;;1.63;1.52;;;;;;;22.77;100.00;96564.72;10328858;28;20613;-61
2022/08/01 10:36:35;;;;;;;1.65;1.55;;;;;;;22.41;100.00;96548.00;10341829;28;20237;-63
2022/08/01 10:41:35;;;;;;;1.60;1.10;;;;;;;24.35;96.52;96524.69;10351512;28;20219;-60
2022/08/01 10:46:38;;;;;;;1.10;1.10;;;;;;;25.91;83.04;96515.16;10353397;28;20212;-62
2022/08/01 10:51:39;;;;;;;0.95;0.90;;;;;;;26.28;75.29;96468.66;10359567;28;20868;-62
2022/08/01 10:56:43;;;;;;;1.08;0.98;;;;;;;23.89;78.93;96494.69;10340787;28;20205;-61
2022/08/01 11:01:58;;;;;;;1.85;1.25;;;;;;;24.73;80.23;96539.09;10350530;28;20760;-60
2022/08/01 11:07:14;;;;;;;1.05;0.65;;;;;;;22.32;85.48;96563.56;10367988;28;20212;-61
2022/08/01 11:12:16;;;;;;;0.52;0.52;;;;;;;22.57;86.76;96549.09;10350433;28;20189;-61
2022/08/01 11:17:35;;;;;;;0.40;0.40;;;;;;;23.30;87.93;96547.53;10336261;28;20304;-60
2022/08/01 11:23:00;;;;;;;0.50;0.35;;;;;;;25.30;75.28;96475.31;10286451;28;20222;-61
2022/08/01 11:28:25;;;;;;;0.30;0.30;;;;;;;26.39;68.07;96443.44;10310206;28;20741;-61
2022/08/01 11:33:41;;;;;;;0.50;0.50;;;;;;;26.93;65.95;96449.50;10326498;28;20245;-61
2022/08/01 11:38:50;;;;;;;3.65;0.57;;;;;;;25.11;73.00;96521.25;10326293;28;20878;-60
2022/08/01 11:44:06;;;;;;;0.73;0.73;;;;;;;25.38;74.36;96520.47;10322346;28;20560;-60
2022/08/01 11:49:31;;;;;;;0.80;0.80;;;;;;;26.28;69.04;96477.53;10326030;28;20951;-61
2022/08/01 11:54:36;;;;;;;0.57;0.50;;;;;;;27.07;66.98;96463.22;10325155;28;20669;-59
2022/08/01 11:59:47;;;;;;;1.48;0.70;;;;;;;26.57;68.27;96487.84;10324320;28;20226;-59
2022/08/01 12:04:48;;;;;;;0.70;0.70;;;;;;;26.19;68.35;96495.22;10328126;28;20181;-60
2022/08/01 12:10:00;;;;;;;0.80;0.80;;;;;;;26.21;62.75;96385.66;10316952;28;20368;-61
2022/08/01 12:15:03;;;;;;;0.65;0.65;;;;;;;27.05;64.06;96448.13;10313187;28;20209;-61
2022/08/01 12:20:06;;;;;;;0.98;0.60;;;;;;;26.88;64.17;96439.53;10374177;22;20296;-59
2022/08/01 12:25:12;;;;;;;1.02;0.77;;;;;;;25.80;68.44;96490.16;10360080;28;20221;-60
2022/08/01 12:30:15;;;;;;;1.05;0.80;;;;;;;27.12;66.06;96484.72;10334122;28;20209;-59
2022/08/01 12:35:18;;;;;;;2.65;1.00;;;;;;;27.79;60.71;96396.66;10296169;28;20692;-59
2022/08/01 12:40:29;;;;;;;0.70;0.70;;;;;;;30.20;53.16;96329.06;10299561;28;20720;-61
2022/08/01 12:45:39;;;;;;;1.05;0.90;;;;;;;29.51;55.48;96377.97;10298656;28;20202;-62
2022/08/01 12:50:47;;;;;;;1.48;0.80;;;;;;;27.17;63.51;96468.59;10281357;28;20234;-60
2022/08/01 12:55:51;;;;;;;1.10;0.70;;;;;;;28.15;58.92;96409.19;10270216;28;20698;-61
2022/08/01 13:01:03;;;;;;;1.00;0.77;;;;;;;28.75;58.01;96415.31;10283868;28;20221;-62
2022/08/01 13:06:14;;;;;;;1.25;0.57;;;;;;;27.57;58.50;96395.09;10329442;28;20793;-61
2022/08/01 13:11:15;;;;;;;0.77;0.70;;;;;;;28.41;54.36;96337.91;10360284;28;20197;-61
2022/08/01 13:16:21;;;;;;;0.70;0.63;;;;;;;29.41;53.23;96351.09;10358100;28;20229;-60
2022/08/01 13:21:26;;;;;;;4.20;0.98;;;;;;;26.40;61.35;96431.66;10359702;28;20252;-58
2022/08/01 13:26:48;;;;;;;1.00;0.60;;;;;;;28.01;57.80;96401.72;10360214;28;20205;-59
2022/08/01 13:31:49;;;;;;;0.65;0.65;;;;;;;28.94;54.23;96366.09;10311444;28;20186;-57
2022/08/01 13:36:49;;;;;;;1.52;0.70;;;;;;;29.13;53.28;96347.31;10300847;28;20210;-60
2022/08/01 13:41:49;;;;;;;0.80;0.80;;;;;;;29.00;53.90;96365.78;10300200;28;20218;-61
2022/08/01 13:46:50;;;;;;;1.25;0.80;;;;;;;31.21;48.17;96294.47;10295456;28;20472;-61
2022/08/01 13:51:50;;;;;;;2.05;0.80;;;;;;;29.52;51.43;96320.19;10298488;28;20245;-61
2022/08/01 13:56:51;;;;;;;0.98;0.98;;;;;;;27.99;52.80;96301.53;10295435;28;20242;-60
2022/08/01 14:01:52;;;;;;;0.30;0.30;;;;;;;29.18;49.66;96288.72;10317839;28;20312;-60
2022/08/01 14:06:52;;;;;;;2.93;0.30;;;;;;;31.06;45.58;96256.88;10343611;28;20224;-62
2022/08/01 14:11:53;;;;;;;1.27;0.40;;;;;;;32.60;44.69;96291.47;10358993;28;20436;-61
2022/08/01 14:16:54;;;;;;;0.90;0.52;;;;;;;30.23;48.58;96311.44;10362028;28;20251;-61
2022/08/01 14:21:54;;;;;;;1.17;0.63;;;;;;;27.44;53.39;96324.94;10365303;28;20221;-60
2022/08/01 14:26:54;;;;;;;0.43;0.43;;;;;;;25.95;57.17;96390.13;10366334;28;20475;-58
2022/08/01 14:31:55;;;;;;;0.50;0.50;;;;;;;26.60;56.59;96405.88;10365504;28;20550;-60
2022/08/01 14:36:55;;;;;;;1.10;0.63;;;;;;;26.49;57.46;96426.53;10366207;28;20474;-58
2022/08/01 14:41:55;;;;;;;0.60;0.60;;;;;;;28.54;52.41;96376.09;10364364;28;20479;-59
2022/08/01 14:46:56;;;;;;;0.50;0.50;;;;;;;29.55;49.50;96353.91;10362886;28;20295;-59
2022/08/01 14:51:56;;;;;;;0.60;0.60;;;;;;;29.26;50.28;96343.16;10306400;28;20463;-59
2022/08/01 14:56:56;;;;;;;5.03;0.70;;;;;;;28.09;54.43;96397.66;10302155;28;20467;-59
2022/08/01 15:01:57;;;;;;;0.75;0.63;;;;;;;26.54;57.79;96448.06;10303031;28;20783;-60
2022/08/01 15:06:57;;;;;;;4.97;1.00;;;;;;;25.57;60.46;96478.72;10306300;28;20613;-61
2022/08/01 15:11:58;;;;;;;1.98;0.73;;;;;;;24.88;62.25;96499.06;10322043;28;20812;-59
2022/08/01 15:16:58;;;;;;;2.83;0.80;;;;;;;25.15;61.77;96484.84;10363918;28;20236;-59
2022/08/01 15:21:59;;;;;;;2.20;0.80;;;;;;;25.74;60.71;96499.22;10363310;28;20217;-58
2022/08/01 15:26:59;;;;;;;1.35;1.00;;;;;;;27.82;55.02;96438.38;10350707;28;21626;-57
2022/08/01 15:32:04;;;;;;;3.03;0.90;;;;;;;30.28;49.04;96383.53;10321790;28;20261;-58
2022/08/01 15:37:05;;;;;;;1.98;0.70;;;;;;;30.85;47.53;96359.19;10351943;28;20934;-60
2022/08/01 15:42:10;;;;;;;1.08;0.82;;;;;;;26.87;55.08;96411.84;10370226;28;20312;-60
2022/08/01 15:47:11;;;;;;;2.30;0.80;;;;;;;26.37;56.96;96450.97;10294170;28;20312;-60
2022/08/01 15:52:11;;;;;;;1.17;0.90;;;;;;;25.07;60.72;96498.72;10289539;28;20608;-59
2022/08/01 15:57:12;;;;;;;2.15;1.00;;;;;;;24.71;62.43;96534.00;10288619;28;20218;-60
2022/08/01 16:02:13;;;;;;;2.15;1.10;;;;;;;24.64;63.72;96545.97;10289166;28;20233;-61
2022/08/01 16:07:13;;;;;;;0.85;0.85;;;;;;;24.76;62.51;96522.53;10288348;28;20317;-60
2022/08/01 16:12:13;;;;;;;1.20;1.10;;;;;;;24.88;62.47;96511.66;10312221;28;20697;-59
2022/08/01 16:17:14;;;;;;;1.10;1.00;;;;;;;24.89;62.49;96519.44;10328466;28;20248;-61
2022/08/01 16:22:14;;;;;;;3.42;1.00;;;;;;;24.07;65.11;96552.47;10318712;28;20696;-60
2022/08/01 16:27:15;;;;;;;3.40;1.02;;;;;;;24.53;64.62;96547.69;10306820;28;20724;-60
2022/08/01 16:32:15;;;;;;;0.82;0.82;;;;;;;24.67;63.23;96526.72;10301805;28;20199;-59
2022/08/01 16:37:15;;;;;;;0.80;0.80;;;;;;;23.90;65.49;96553.28;10295390;28;20225;-61
2022/08/01 16:42:16;;;;;;;6.93;1.00;;;;;;;23.56;66.53;96555.16;10285107;28;20317;-59
2022/08/01 16:47:16;;;;;;;1.00;0.90;;;;;;;23.75;66.18;96564.56;10287181;28;20214;-57
2022/08/01 16:52:16;;;;;;;4.10;0.80;;;;;;;24.08;64.76;96536.16;10286831;28;20253;-56
2022/08/01 16:57:17;;;;;;;3.70;0.90;;;;;;;23.93;65.92;96550.13;10286837;28;20226;-61
2022/08/01 17:02:17;;;;;;;1.05;0.80;;;;;;;23.34;67.84;96566.59;10292482;28;20232;-61
2022/08/01 17:07:17;;;;;;;1.13;0.98;;;;;;;23.26;67.14;96558.94;10324798;28;20296;-61
2022/08/01 17:12:18;;;;;;;1.23;1.10;;;;;;;22.95;68.37;96575.22;10326110;28;20190;-60
2022/08/01 17:17:18;;;;;;;2.42;0.90;;;;;;;22.55;68.98;96576.03;10325984;28;20291;-60
2022/08/01 17:22:19;;;;;;;1.75;0.90;;;;;;;22.52;68.54;96571.19;10326271;28;20221;-60
2022/08/01 17:27:19;;;;;;;1.83;0.90;;;;;;;22.77;68.06;96576.22;10326083;28;20594;-59
2022/08/01 17:32:20;;;;;;;0.90;0.90;;;;;;;22.74;68.22;96563.34;10326427;28;20186;-60
2022/08/01 17:37:20;;;;;;;2.15;0.80;;;;;;;22.48;69.53;96582.56;10325063;28;20233;-57
2022/08/01 17:42:20;;;;;;;1.30;0.90;;;;;;;22.40;69.60;96583.75;10326080;28;20309;-59
2022/08/01 17:47:21;;;;;;;0.95;0.95;;;;;;;22.38;70.61;96593.84;10325759;28;20222;-59
2022/08/01 17:52:22;;;;;;;0.90;0.90;;;;;;;22.13;71.73;96610.91;10329722;28;20232;-60
2022/08/01 17:57:22;;;;;;;1.23;1.10;;;;;;;21.72;73.76;96617.94;10333953;28;20787;-56
2022/08/01 18:02:24;;;;;;;0.77;0.77;;;;;;;21.76;74.46;96620.97;10333292;28;20218;-60
2022/08/01 18:07:24;;;;;;;1.40;0.90;;;;;;;21.64;74.82;96624.44;10333455;28;20214;-58
2022/08/01 18:12:24;;;;;;;1.20;1.00;;;;;;;21.51;75.26;96627.28;10333345;28;20679;-59
2022/08/01 18:17:25;;;;;;;1.35;1.25;;;;;;;21.35;75.04;96626.88;10357365;23;20588;-60
2022/08/01 18:22:25;;;;;;;0.80;0.80;;;;;;;21.08;77.64;96638.94;10456138;28;20787;-60
2022/08/01 18:27:25;;;;;;;1.38;1.10;;;;;;;20.93;77.61;96636.66;10454112;28;20670;-60
2022/08/01 18:32:26;;;;;;;1.00;0.80;;;;;;;20.69;78.65;96638.38;10454984;28;20785;-62
2022/08/01 18:37:26;;;;;;;0.63;0.63;;;;;;;20.52;80.39;96648.78;10454630;28;20659;-59
2022/08/01 18:42:26;;;;;;;0.93;0.93;;;;;;;20.35;81.54;96653.88;10454876;28;20242;-62
2022/08/01 18:47:27;;;;;;;1.95;1.05;;;;;;;19.81;83.20;96657.00;10455093;28;20585;-62
2022/08/01 18:52:27;;;;;;;1.95;0.80;;;;;;;19.37;86.29;96664.84;10454289;28;20187;-61
2022/08/01 18:57:27;;;;;;;4.07;1.63;;;;;;;19.28;89.68;96671.44;10471026;28;20237;-60
2022/08/01 19:02:28;;;;;;;2.95;1.33;;;;;;;18.24;100.00;96679.31;10493993;28;20256;-61
2022/08/01 19:07:28;;;;;;;3.33;1.00;;;;;;;18.09;100.00;96681.34;10494507;28;20191;-61
2022/08/01 19:12:28;;;;;;;1.42;1.20;;;;;;;17.54;100.00;96706.13;10494791;28;20200;-61
2022/08/01 19:17:29;;;;;;;1.20;1.20;;;;;;;17.46;100.00;96706.34;10494955;28;20338;-60
2022/08/01 19:22:29;;;;;;;1.88;1.40;;;;;;;17.32;100.00;96717.88;10494977;28;20237;-60
2022/08/01 19:27:31;;;;;;;1.30;1.20;;;;;;;17.50;100.00;96727.94;10494677;28;20234;-61
2022/08/01 19:32:33;;;;;;;1.05;1.05;;;;;;;17.24;100.00;96737.41;10477109;28;21050;-62
2022/08/01 19:37:34;;;;;;;4.32;1.48;;;;;;;17.27;100.00;96750.25;10494681;28;20322;-61
2022/08/01 19:42:38;;;;;;;1.40;1.30;;;;;;;17.21;100.00;96757.19;10494256;28;20223;-61
2022/08/01 19:47:39;;;;;;;4.05;1.48;;;;;;;17.11;100.00;96768.13;10493982;28;20286;-62
2022/08/01 19:52:40;;;;;;;2.78;1.48;;;;;;;17.20;100.00;96763.47;10493361;28;20183;-62
2022/08/01 19:57:41;;;;;;;1.52;1.42;;;;;;;17.32;100.00;96768.19;10476037;28;20265;-61
2022/08/01 20:02:42;;;;;;;2.08;1.60;;;;;;;17.19;100.00;96772.44;10475460;28;20231;-61
2022/08/01 20:07:43;;;;;;;5.28;1.40;;;;;;;17.21;100.00;96790.75;10493268;28;20220;-62
2022/08/01 20:12:43;;;;;;;1.98;1.60;;;;;;;17.24;100.00;96800.97;10492510;28;20183;-62
2022/08/01 20:17:44;;;;;;;1.60;1.50;;;;;;;17.11;100.00;96794.59;10492344;28;20242;-61
2022/08/01 20:22:45;;;;;;;1.65;1.55;;;;;;;17.05;100.00;96798.03;10493014;28;20361;-62
2022/08/01 20:27:46;;;;;;;1.60;1.50;;;;;;;16.99;100.00;96798.81;10481574;28;20215;-58
2022/08/01 20:32:47;;;;;;;1.45;1.33;;;;;;;16.80;100.00;96799.47;10492493;28;20560;-60
2022/08/01 20:37:47;;;;;;;1.50;1.33;;;;;;;16.68;100.00;96799.19;10491843;28;20210;-60
2022/08/01 20:42:49;;;;;;;1.73;1.40;;;;;;;16.49;100.00;96798.03;10495502;28;20219;-60
2022/08/01 20:47:50;;;;;;;1.60;1.50;;;;;;;16.34;100.00;96808.69;10511703;28;20221;-59
2022/08/01 20:52:51;;;;;;;2.42;1.40;;;;;;;16.21;100.00;96814.69;10505077;28;20196;-56
2022/08/01 20:57:51;;;;;;;1.23;1.20;;;;;;;16.12;100.00;96819.25;10491359;28;20207;-60
2022/08/01 21:03:04;;;;;;;1.60;1.50;;;;;;;15.94;100.00;96821.53;10490894;28;20211;-60
2022/08/01 21:08:36;;;;;;;1.85;1.60;;;;;;;15.80;100.00;96818.75;10488571;28;20252;-57
2022/08/01 21:13:40;;;;;;;3.10;1.50;;;;;;;15.74;100.00;96823.94;10448891;28;20692;-62
2022/08/01 21:18:52;;;;;;;1.70;1.60;;;;;;;15.69;100.00;96819.19;10466114;28;20220;-59
2022/08/01 21:23:58;;;;;;;1.55;1.45;;;;;;;15.49;100.00;96816.34;10453284;28;20227;-58
2022/08/01 21:29:02;;;;;;;1.63;1.52;;;;;;;15.35;100.00;96823.28;10490908;28;20222;-56
2022/08/01 21:34:04;;;;;;;2.13;1.55;;;;;;;15.41;100.00;96830.47;10472659;28;20568;-61
2022/08/01 21:39:06;;;;;;;3.60;1.65;;;;;;;15.37;100.00;96828.38;10489860;28;20246;-60
2022/08/01 21:44:06;;;;;;;2.00;1.80;;;;;;;15.20;100.00;96838.31;10490598;28;20194;-61
2022/08/01 21:49:07;;;;;;;1.70;1.60;;;;;;;15.17;100.00;96836.84;10489366;28;20214;-62
2022/08/01 21:54:26;;;;;;;1.98;1.85;;;;;;;15.15;100.00;96838.84;10489918;28;20191;-61
2022/08/01 21:59:45;;;;;;;2.53;1.75;;;;;;;15.09;100.00;96844.84;10489613;28;20252;-61
2022/08/01 22:04:49;;;;;;;2.45;1.40;;;;;;;15.04;100.00;96842.75;10472284;28;20211;-61
2022/08/01 22:09:52;;;;;;;3.15;2.03;;;;;;;14.87;100.00;96844.75;10489382;28;20211;-62
2022/08/01 22:14:53;;;;;;;1.80;1.70;;;;;;;14.81;100.00;96850.75;10489277;28;20245;-62
2022/08/01 22:19:55;;;;;;;2.38;1.67;;;;;;;14.74;100.00;96868.28;10488702;28;20283;-59
2022/08/01 22:24:55;;;;;;;1.92;1.70;;;;;;;14.69;100.00;96868.00;10504414;28;20278;-61
2022/08/01 22:30:07;;;;;;;2.88;2.38;;;;;;;14.54;100.00;96870.56;10488931;28;20290;-62
2022/08/01 22:35:11;;;;;;;2.03;1.92;;;;;;;14.47;100.00;96878.34;10488884;28;20195;-61
2022/08/01 22:40:13;;;;;;;1.63;1.52;;;;;;;14.45;100.00;96875.06;10495430;28;20262;-61
2022/08/01 22:45:33;;;;;;;1.65;1.55;;;;;;;14.47;100.00;96874.91;10496024;28;20206;-61
2022/08/01 22:50:37;;;;;;;1.90;1.80;;;;;;;14.33;100.00;96874.66;10478175;28;20215;-60
2022/08/01 22:55:41;;;;;;;1.73;1.63;;;;;;;14.25;100.00;96869.47;10495705;28;20191;-61
2022/08/01 23:00:42;;;;;;;1.70;1.60;;;;;;;14.21;100.00;96876.91;10495853;28;20227;-60
2022/08/01 23:06:03;;;;;;;1.92;1.77;;;;;;;14.13;100.00;96881.41;10511138;28;20566;-58
2022/08/01 23:11:04;;;;;;;1.67;1.58;;;;;;;14.09;100.00;96887.03;10495431;28;20211;-59
2022/08/01 23:16:05;;;;;;;1.83;1.58;;;;;;;13.99;100.00;96888.25;10495105;28;20215;-59
2022/08/01 23:21:06;;;;;;;2.97;1.70;;;;;;;13.96;100.00;96888.59;10494757;28;20257;-61